Date,TemperatureHighF,TemperatureAvgF,TemperatureLowF,DewpointHighF,DewpointAvgF,DewpointLowF,HumidityHigh,HumidityAvg,HumidityLow,PressureMaxIn,PressureMinIn,WindSpeedMaxMPH,WindSpeedAvgMPH,GustSpeedMaxMPH,PrecipitationSumIn
2013-1-1,37,33,23,28,20,6,76,60,46,29.89,29.67,24,2,24,0.00
2013-1-2,32,23,16,20,8,2,77,61,49,30.05,29.84,15,2,18,0.00
2013-1-3,26,18,8,10,0,-7,74,57,33,30.09,29.94,7,0,8,0.00
2013-1-4,40,30,17,26,19,8,87,70,52,29.94,29.76,19,2,19,0.00
2013-1-5,43,34,27,26,23,16,82,66,44,30.21,29.79,12,1,13,0.00
2013-1-6,44,34,28,31,28,22,88,76,56,30.18,29.88,12,1,12,0.00
2013-1-7,42,34,27,31,25,19,90,74,44,30.35,29.91,8,1,13,0.00
2013-1-8,47,36,26,31,28,19,93,76,51,30.32,30.21,24,1,24,0.00
2013-1-9,45,37,28,37,31,25,92,78,59,30.34,29.93,19,1,19,0.00
2013-1-10,48,41,34,33,27,24,77,57,41,30.49,29.99,20,3,20,0.00
2013-1-11,42,36,30,38,31,25,96,80,62,30.47,30.17,2,0,3,0.00
2013-1-12,46,43,39,44,41,37,96,94,92,30.19,30.08,2,0,2,0.00
2013-1-13,53,48,43,51,47,42,98,95,91,30.11,29.94,12,1,20,0.00
2013-1-14,61,53,44,54,45,32,97,76,43,30.20,29.80,12,3,13,0.00
2013-1-15,44,41,36,33,29,25,78,63,50,30.26,30.15,3,0,6,0.00
2013-1-16,38,36,33,35,32,25,94,87,60,30.19,29.77,3,0,5,0.00
2013-1-17,44,37,33,35,30,17,95,77,51,30.04,29.79,17,1,17,0.00
2013-1-18,33,25,20,19,4,-6,65,46,30,30.40,30.00,15,2,27,0.00
2013-1-19,49,37,23,34,23,6,78,60,41,30.33,29.85,22,3,23,0.00
2013-1-20,53,42,30,34,28,13,77,59,40,29.87,29.50,26,5,32,0.00
2013-1-21,32,28,23,23,12,4,84,57,39,30.05,29.74,14,1,17,0.00
2013-1-22,29,23,16,23,7,-3,86,61,33,30.03,29.70,10,2,20,0.00
2013-1-23,21,14,10,0,-7,-11,64,46,31,30.09,30.01,14,2,17,0.00
2013-1-24,27,14,6,-5,-9,-12,55,42,27,30.17,30.01,14,2,18,0.00
2013-1-25,29,20,11,12,-5,-12,76,41,24,30.25,30.01,10,1,12,0.00
2013-1-26,31,20,15,12,2,-8,80,56,29,30.19,29.95,10,1,15,0.00
2013-1-27,35,23,15,8,2,-2,63,46,27,30.41,30.18,10,2,13,0.00
2013-1-28,36,28,22,29,15,1,89,64,34,30.40,29.95,5,0,8,0.00
2013-1-29,38,34,30,34,30,26,91,85,77,30.15,29.96,5,0,5,0.00
2013-1-30,61,50,36,58,48,33,100,94,86,30.10,29.41,22,3,27,0.00
2013-1-31,61,48,33,59,38,18,99,72,38,29.54,28.93,27,6,39,0.00
2013-2-1,34,30,24,21,12,2,63,47,34,30.03,29.54,17,4,17,0.00
2013-2-2,34,27,21,16,8,0,60,49,38,30.20,30.00,10,2,13,0.00
2013-2-3,32,28,25,25,21,14,86,77,55,30.01,29.68,8,0,8,0.00
2013-2-4,34,27,23,24,12,6,86,61,38,29.89,29.67,17,3,20,0.00
2013-2-5,33,28,24,25,15,7,85,62,50,29.97,29.88,5,0,5,0.00
2013-2-6,41,32,28,28,21,7,87,65,40,30.23,29.87,10,2,13,0.00
2013-2-7,37,28,20,18,7,-1,70,46,28,30.48,30.24,7,1,12,0.00
2013-2-8,35,31,20,34,26,13,100,87,60,30.43,29.54,19,4,22,0.00
2013-2-9,26,22,17,16,12,3,93,79,63,30.14,29.50,14,4,18,0.00
2013-2-10,48,24,9,23,9,-1,80,60,27,30.34,30.14,8,1,8,0.00
2013-2-11,44,34,19,43,30,9,100,90,79,30.30,29.55,7,1,7,0.00
2013-2-12,49,39,34,40,32,28,98,75,50,29.83,29.55,26,3,26,0.00
2013-2-13,50,37,29,31,28,25,89,72,42,29.82,29.64,12,1,12,0.00
2013-2-14,52,38,32,32,27,22,86,66,34,29.94,29.66,8,1,11,0.00
2013-2-15,56,40,29,37,32,26,96,77,45,29.96,29.85,14,2,15,0.00
2013-2-16,42,37,33,34,30,21,94,76,56,29.90,29.66,8,2,10,0.00
2013-2-17,33,24,19,25,11,0,91,69,45,29.65,29.35,29,5,29,0.00
2013-2-18,38,24,16,9,3,-1,58,46,26,30.10,29.63,26,5,26,0.00
2013-2-19,49,37,25,41,26,3,100,69,46,30.12,29.53,12,1,12,0.00
2013-2-20,40,32,27,40,22,10,100,67,42,29.73,29.48,19,4,23,0.00
2013-2-21,37,29,25,19,14,9,70,58,41,30.13,29.73,15,4,18,0.00
2013-2-22,42,32,24,28,21,13,86,69,44,30.33,30.14,8,1,11,0.00
2013-2-23,39,35,28,35,31,26,98,83,70,30.28,29.87,7,1,8,0.00
2013-2-24,38,35,33,39,35,33,100,98,95,29.86,29.64,12,2,13,0.00
2013-2-25,40,35,33,34,32,29,100,88,66,30.19,29.84,5,0,6,0.00
2013-2-26,43,35,28,34,31,28,100,84,59,30.28,30.10,8,1,10,0.00
2013-2-27,41,39,36,41,39,33,100,99,86,30.10,29.51,17,4,20,0.00
2013-2-28,47,38,34,38,36,34,100,93,71,29.59,29.47,3,0,6,0.00
2013-3-1,42,38,32,36,32,29,100,79,62,29.63,29.48,10,1,17,0.00
2013-3-2,44,38,33,33,29,26,84,71,56,29.63,29.57,10,1,12,0.00
2013-3-3,43,36,33,33,30,27,96,78,62,29.60,29.51,7,1,7,0.00
2013-3-4,41,35,31,28,25,22,82,70,53,29.69,29.53,22,4,22,0.00
2013-3-5,47,37,32,34,28,24,97,73,50,30.01,29.69,8,2,13,0.00
2013-3-6,40,37,35,38,34,30,98,89,69,30.06,29.98,24,5,24,0.00
2013-3-7,37,33,31,34,32,30,99,94,78,30.01,29.93,19,6,25,0.00
2013-3-8,40,34,30,34,31,25,99,87,58,30.09,29.87,15,4,18,0.00
2013-3-9,48,35,27,34,28,22,100,76,50,30.30,30.09,10,2,15,0.00
2013-3-10,46,34,25,34,28,19,100,86,59,30.37,30.26,10,1,10,0.00
2013-3-11,54,41,35,41,36,33,100,86,61,30.28,30.10,12,2,13,0.00
2013-3-12,57,48,39,53,46,39,100,97,81,30.11,29.67,12,2,17,0.00
2013-3-13,55,44,34,51,33,22,100,70,34,29.74,29.65,14,2,14,0.00
2013-3-14,37,32,24,27,17,4,77,55,40,29.79,29.66,19,4,19,0.00
2013-3-15,45,32,22,28,14,4,79,53,28,29.83,29.58,15,3,22,0.00
2013-3-16,43,35,30,28,18,10,82,52,27,29.82,29.62,10,1,12,0.00
2013-3-17,41,32,25,21,14,5,80,51,26,30.26,29.82,15,2,15,0.00
2013-3-18,43,30,19,29,11,-1,92,50,27,30.41,30.19,8,1,10,0.00
2013-3-19,37,34,30,37,33,29,100,98,93,30.18,29.55,15,3,18,0.00
2013-3-20,42,33,28,30,24,18,96,73,41,29.77,29.65,20,3,20,0.00
2013-3-21,39,32,24,31,24,16,95,77,49,29.78,29.56,10,1,12,0.00
2013-3-22,43,34,29,30,22,17,97,63,41,29.70,29.55,14,3,15,0.00
2013-3-23,46,35,29,26,22,19,79,60,37,29.75,29.59,24,4,24,0.00
2013-3-24,50,38,32,30,25,22,84,61,37,29.77,29.68,10,2,12,0.00
2013-3-25,46,38,31,34,31,28,91,77,58,29.73,29.46,15,3,15,0.00
2013-3-26,53,41,35,32,27,22,81,58,33,29.73,29.48,10,2,13,0.00
2013-3-27,54,42,30,31,26,22,80,55,33,29.82,29.69,15,2,15,0.00
2013-3-28,49,42,38,37,34,29,92,75,49,29.97,29.81,12,1,12,0.00
2013-3-29,58,46,34,40,33,28,90,63,35,30.00,29.91,14,1,20,0.00
2013-3-30,62,47,35,34,27,17,79,50,21,30.05,29.95,12,2,12,0.00
2013-3-31,61,46,30,42,29,24,90,59,26,30.07,29.69,19,2,19,0.00
2013-4-1,63,47,36,50,38,14,100,75,40,29.74,29.46,15,3,17,0.00
2013-4-2,45,35,30,21,16,10,65,46,30,29.90,29.75,26,4,26,0.00
2013-4-3,50,38,31,21,15,11,65,42,25,30.11,29.88,17,5,25,0.00
2013-4-4,61,43,30,27,19,14,62,41,19,30.25,30.00,15,3,17,0.00
2013-4-5,65,47,38,32,28,21,73,51,22,30.01,29.57,10,3,15,0.00
2013-4-6,53,39,31,27,14,6,61,38,19,30.28,29.83,14,3,17,0.00
2013-4-7,58,43,28,41,29,18,83,60,36,30.28,29.96,19,3,20,0.00
2013-4-8,71,54,41,44,41,35,99,66,28,30.04,29.90,8,2,10,0.00
2013-4-9,74,56,46,53,45,39,99,69,36,30.03,29.81,17,2,18,0.00
2013-4-10,68,53,46,50,47,43,98,80,49,29.97,29.80,7,1,10,0.00
2013-4-11,56,48,42,50,43,27,100,85,50,30.09,29.77,7,1,10,0.00
2013-4-12,42,40,39,41,38,33,100,94,77,30.12,29.73,14,3,20,0.00
2013-4-13,56,45,37,42,38,34,99,81,50,29.88,29.71,8,2,13,0.00
2013-4-14,52,45,38,42,34,26,95,70,41,30.17,29.87,14,2,14,0.00
2013-4-15,60,46,32,40,35,30,92,68,38,30.34,30.16,10,1,11,0.00
2013-4-16,67,52,37,51,43,36,99,74,48,30.36,30.01,15,4,22,0.00
2013-4-17,70,59,47,53,39,28,88,52,24,30.28,30.01,19,3,19,0.00
2013-4-18,68,52,39,45,35,29,86,56,31,30.37,30.10,15,2,17,0.00
2013-4-19,76,63,53,63,58,46,100,85,58,30.10,29.61,26,5,26,0.00
2013-4-20,66,54,45,63,44,26,100,71,40,30.18,29.55,17,3,18,0.00
2013-4-21,58,44,35,31,25,20,77,50,26,30.62,30.17,10,1,13,0.00
2013-4-22,54,43,32,36,32,25,94,68,35,30.70,30.53,14,2,15,0.00
2013-4-23,44,42,41,43,40,33,100,92,71,30.54,30.06,12,2,12,0.00
2013-4-24,77,56,42,53,46,42,100,75,30,30.07,29.74,14,2,14,0.00
2013-4-25,69,55,44,54,39,28,98,60,25,30.21,29.78,14,2,15,0.00
2013-4-26,62,49,39,42,37,32,92,65,43,30.37,30.21,14,1,14,0.00
2013-4-27,67,52,37,43,39,35,99,67,34,30.37,30.23,10,1,10,0.00
2013-4-28,72,54,38,43,37,29,94,57,31,30.29,30.15,10,1,10,0.00
2013-4-29,73,57,45,47,39,26,94,57,26,30.23,30.14,12,1,12,0.00
2013-4-30,72,56,43,41,33,22,84,48,20,30.32,30.20,8,1,10,0.00
2013-5-1,70,54,38,40,36,31,92,55,26,30.42,30.31,12,1,12,0.00
2013-5-2,79,55,42,46,42,37,96,66,27,30.43,30.29,10,1,11,0.00
2013-5-3,62,50,42,46,42,39,92,74,52,30.47,30.32,20,1,20,0.00
2013-5-4,62,48,39,46,41,37,98,77,49,30.32,30.25,8,1,12,0.00
2013-5-5,61,48,37,44,40,36,99,78,51,30.29,30.20,8,1,8,0.00
2013-5-6,71,52,38,50,45,37,100,80,46,30.25,30.09,10,0,10,0.00
2013-5-7,80,62,44,58,51,43,99,73,44,30.13,30.03,17,1,17,0.00
2013-5-8,72,63,52,64,58,52,100,87,63,30.15,29.99,10,0,10,0.00
2013-5-9,68,60,57,64,59,57,100,98,78,30.00,29.83,5,0,5,0.00
2013-5-10,79,65,55,62,58,52,100,80,43,29.91,29.84,7,0,7,0.00
2013-5-11,70,63,58,63,60,55,99,89,73,29.87,29.64,12,1,12,0.00
2013-5-12,71,61,51,61,53,33,100,77,45,29.77,29.51,10,1,12,0.00
2013-5-13,61,51,43,37,33,29,76,53,35,29.98,29.76,10,1,13,0.00
2013-5-14,60,50,40,39,34,29,81,57,37,30.01,29.92,10,1,10,0.00
2013-5-15,68,52,38,52,41,31,98,73,36,30.01,29.63,12,1,12,0.00
2013-5-16,81,66,49,52,43,35,100,55,23,29.75,29.58,20,2,20,0.00
2013-5-17,70,60,50,48,43,38,83,59,36,30.17,29.74,8,1,13,0.00
2013-5-18,73,59,45,49,45,39,99,67,31,30.26,30.16,12,0,12,0.00
2013-5-19,73,57,48,55,51,46,100,85,49,30.30,30.17,7,0,7,0.00
2013-5-20,81,68,56,65,61,55,100,84,56,30.18,29.86,8,0,8,0.00
2013-5-21,83,64,53,69,59,52,100,90,62,29.95,29.80,7,0,7,0.00
2013-5-22,69,58,52,63,55,51,100,95,78,30.01,29.84,7,0,7,0.00
2013-5-23,77,66,56,70,62,55,100,93,78,29.88,29.75,19,1,19,0.00
2013-5-24,71,64,51,68,63,51,100,98,87,29.78,29.60,10,1,10,0.00
2013-5-25,54,49,43,53,49,42,100,99,95,29.76,29.66,12,1,12,0.00
2013-5-26,60,49,41,45,42,40,100,79,52,30.06,29.67,10,2,13,0.00
2013-5-27,73,58,43,48,42,35,97,62,27,30.12,30.02,12,1,12,0.00
2013-5-28,76,60,44,56,48,43,97,70,34,30.19,30.10,7,0,7,0.00
2013-5-29,71,63,59,68,61,54,100,94,82,30.15,29.94,10,0,10,0.00
2013-5-30,88,74,63,70,67,63,100,81,53,30.04,29.96,12,1,12,0.00
2013-5-31,94,79,66,71,67,62,99,71,39,30.04,29.88,8,0,10,0.00
2013-6-1,93,79,66,69,66,63,91,68,41,29.94,29.81,12,1,12,0.00
2013-6-2,91,77,68,71,67,64,91,71,44,29.85,29.68,17,1,17,0.00
2013-6-3,76,70,62,70,65,50,98,86,62,29.81,29.70,7,0,7,0.00
2013-6-4,74,62,52,52,48,43,80,61,42,30.05,29.77,10,1,10,0.00
2013-6-5,77,63,50,54,50,45,93,65,37,30.15,30.04,8,0,8,0.00
2013-6-6,75,64,55,57,52,47,90,66,44,30.15,30.05,10,0,13,0.00
2013-6-7,60,57,55,59,56,52,100,98,90,30.07,29.78,7,0,7,0.00
2013-6-8,78,64,54,65,59,54,100,87,64,29.95,29.56,15,1,15,0.00
2013-6-9,81,68,56,60,58,54,99,73,46,30.11,29.95,7,0,8,0.00
2013-6-10,69,62,56,63,59,55,100,89,63,30.16,29.97,7,0,7,0.00
2013-6-11,65,60,57,62,59,57,100,97,87,29.97,29.52,8,0,12,0.00
2013-6-12,74,63,58,60,58,55,100,83,58,29.77,29.51,14,1,14,0.00
2013-6-13,66,58,53,61,56,52,100,93,78,29.77,29.63,5,0,5,0.00
2013-6-14,73,60,52,63,57,52,100,88,61,29.71,29.59,7,0,10,0.00
2013-6-15,80,67,56,57,52,45,97,63,33,29.90,29.71,8,0,8,0.00
2013-6-16,76,65,53,64,57,50,93,74,49,29.90,29.67,7,0,7,0.00
2013-6-17,88,70,59,65,62,58,100,78,39,29.87,29.72,10,1,12,0.00
2013-6-18,78,64,60,68,62,60,100,95,61,29.90,29.83,7,0,7,0.00
2013-6-19,76,64,56,60,57,50,100,80,48,30.10,29.85,5,0,10,0.00
2013-6-20,81,66,52,58,54,48,99,70,37,30.21,30.10,8,0,8,0.00
2013-6-21,86,71,58,66,60,55,91,72,47,30.21,30.13,8,0,8,0.00
2013-6-22,87,72,62,66,61,58,86,69,43,30.18,30.06,12,0,12,0.00
2013-6-23,91,76,65,74,66,57,83,71,55,30.12,29.95,12,1,12,0.00
2013-6-24,94,80,70,74,71,67,97,76,47,29.98,29.82,7,1,7,0.00
2013-6-25,93,78,68,73,70,68,99,76,45,29.88,29.68,8,1,8,0.00
2013-6-26,86,76,69,74,70,67,94,82,62,29.81,29.67,7,0,7,0.00
2013-6-27,75,67,64,68,66,63,100,94,79,29.83,29.71,5,0,5,0.00
2013-6-28,85,72,63,75,69,63,100,91,70,29.72,29.44,12,1,13,0.00
2013-6-29,86,76,71,74,70,67,98,83,60,29.68,29.46,12,1,13,0.00
2013-6-30,88,76,70,76,71,68,98,84,65,29.91,29.68,12,1,12,0.00
2013-7-1,84,76,72,78,73,71,100,92,76,30.04,29.89,7,0,10,0.00
2013-7-2,85,75,65,76,71,63,96,88,72,30.16,30.02,7,1,8,0.00
2013-7-3,90,76,65,76,70,63,97,82,58,30.16,30.08,10,1,10,0.00
2013-7-4,94,82,73,77,74,72,97,78,54,30.16,30.05,10,1,10,0.00
2013-7-5,97,84,76,78,74,72,88,73,49,30.12,29.99,10,1,10,0.00
2013-7-6,92,82,76,75,72,67,91,74,53,30.04,29.93,8,0,8,0.00
2013-7-7,94,79,70,78,72,67,96,80,55,29.99,29.85,8,0,8,0.00
2013-7-8,86,77,69,77,72,66,99,86,69,30.02,29.86,7,0,8,0.00
2013-7-9,75,70,67,70,67,65,97,89,81,30.06,29.99,5,0,5,0.00
2013-7-10,87,75,67,76,72,66,99,89,67,30.03,29.75,15,0,15,0.00
2013-7-11,129,80,71,76,72,56,99,92,58,29.87,29.73,5,0,6,0.00
2013-7-12,76,71,67,71,64,57,100,79,58,30.15,29.86,17,1,17,0.00
2013-7-13,78,71,67,72,68,63,98,89,77,30.26,30.15,5,0,5,0.00
2013-7-14,92,79,71,76,73,70,100,84,49,30.26,30.14,7,0,8,0.00
2013-7-15,92,80,71,78,74,71,100,84,56,30.16,30.05,5,0,5,0.00
2013-7-16,95,80,70,74,70,67,96,74,46,30.12,30.05,5,0,6,0.00
2013-7-17,95,82,71,75,72,69,97,75,46,30.14,29.96,5,0,6,0.00
2013-7-18,92,83,76,76,74,71,91,75,54,29.97,29.89,5,0,6,0.00
2013-7-19,98,85,76,78,75,72,95,74,46,29.91,29.68,10,1,12,0.00
2013-7-20,94,84,76,78,74,65,91,75,47,29.77,29.60,10,0,10,0.00
2013-7-21,84,76,70,70,66,62,93,72,56,29.95,29.77,7,0,7,0.00
2013-7-22,84,74,67,72,68,66,98,84,61,29.97,29.84,8,1,8,0.00
2013-7-23,79,73,70,78,72,68,100,98,89,29.83,29.49,8,0,8,0.00
2013-7-24,84,75,68,75,70,58,100,84,61,29.91,29.53,7,0,7,0.00
2013-7-25,68,62,60,61,58,52,100,84,69,30.06,29.90,5,0,5,0.00
2013-7-26,72,65,61,69,64,61,100,98,90,30.01,29.89,7,0,7,0.00
2013-7-27,83,71,60,70,65,60,100,85,56,30.02,29.94,5,0,6,0.00
2013-7-28,86,72,66,74,69,65,100,91,67,29.97,29.91,7,0,7,0.00
2013-7-29,83,72,68,73,70,66,100,92,65,29.99,29.92,12,0,12,0.00
2013-7-30,82,71,60,69,63,57,100,78,46,30.06,29.98,8,0,8,0.00
2013-7-31,83,71,61,67,62,56,98,77,46,30.10,29.99,3,0,5,0.00
2013-8-1,83,71,63,67,64,62,98,82,54,30.02,29.83,10,0,10,0.00
2013-8-2,83,72,65,70,65,60,100,82,53,29.84,29.75,8,0,8,0.00
2013-8-3,78,71,65,66,64,61,95,81,61,29.83,29.73,7,0,7,0.00
2013-8-4,81,68,60,65,60,56,94,75,44,29.85,29.73,7,0,7,0.00
2013-8-5,78,65,57,58,52,45,90,64,36,30.01,29.85,7,0,7,0.00
2013-8-6,82,65,52,58,54,51,97,71,39,30.11,30.00,5,0,5,0.00
2013-8-7,82,68,57,62,57,50,98,72,41,30.15,30.07,8,0,8,0.00
2013-8-8,80,72,65,72,68,57,98,87,74,30.10,29.96,8,0,8,0.00
2013-8-9,75,73,71,75,72,70,100,98,94,29.98,29.71,10,0,13,0.00
2013-8-10,82,73,64,73,64,56,100,76,45,29.96,29.74,12,1,12,0.00
2013-8-11,80,68,56,62,57,53,98,73,44,30.05,29.95,7,0,8,0.00
2013-8-12,83,70,61,64,61,56,96,76,45,29.99,29.87,7,0,7,0.00
2013-8-13,75,69,64,69,66,63,97,90,69,29.89,29.65,5,0,6,0.00
2013-8-14,75,67,61,65,57,52,99,71,48,29.93,29.63,10,1,12,0.00
2013-8-15,77,65,56,57,54,50,92,70,43,30.08,29.92,8,0,8,0.00
2013-8-16,79,66,55,60,57,54,95,74,44,30.16,30.07,7,0,7,0.00
2013-8-17,82,68,57,62,59,56,98,77,51,30.25,30.15,7,0,8,0.00
2013-8-18,80,68,59,67,62,58,97,82,52,30.24,30.04,3,0,5,0.00
2013-8-19,82,70,59,64,61,58,98,75,48,30.05,29.90,5,0,8,0.00
2013-8-20,87,74,63,66,63,59,94,73,43,30.05,29.93,7,0,7,0.00
2013-8-21,89,74,62,68,65,61,96,74,48,30.11,29.98,7,0,7,0.00
2013-8-22,86,75,65,73,68,64,95,82,59,30.00,29.78,8,0,8,0.00
2013-8-23,83,72,64,70,62,53,97,74,47,30.08,29.78,7,0,7,0.00
2013-8-24,79,65,55,54,51,46,90,62,35,30.30,30.08,7,0,7,0.00
2013-8-25,83,67,53,58,54,49,97,68,33,30.32,30.14,5,0,6,0.00
2013-8-26,81,72,65,68,63,57,85,75,58,30.16,29.83,12,0,12,0.00
2013-8-27,82,73,66,72,69,65,100,88,65,29.86,29.79,7,0,7,0.00
2013-8-28,86,71,63,70,66,62,100,85,54,29.94,29.81,7,0,7,0.00
2013-8-29,68,65,62,67,64,59,98,93,87,30.03,29.90,10,0,10,0.00
2013-8-30,84,71,63,69,65,60,93,82,58,29.99,29.78,7,0,7,0.00
2013-8-31,80,74,69,74,71,68,99,90,79,29.80,29.75,7,0,8,0.00
2013-9-1,126,73,68,77,72,68,100,98,92,29.85,29.75,8,0,13,0.00
2013-9-2,83,74,70,77,73,70,100,96,80,29.83,29.67,10,0,10,0.00
2013-9-3,78,73,65,73,70,60,100,91,74,29.77,29.64,12,0,15,0.00
2013-9-4,81,68,59,61,59,56,99,75,48,29.88,29.76,8,0,10,0.00
2013-9-5,72,63,52,65,59,50,99,87,55,30.11,29.82,5,0,5,0.00
2013-9-6,70,57,47,51,47,42,94,72,39,30.21,30.05,10,0,10,0.00
2013-9-7,78,63,50,59,53,47,93,72,41,30.06,29.82,7,0,7,0.00
2013-9-8,77,65,52,63,55,44,90,70,42,30.06,29.71,10,1,10,0.00
2013-9-9,69,57,46,53,48,43,95,73,45,30.20,30.05,5,0,8,0.00
2013-9-10,76,66,55,71,63,52,98,90,83,30.13,29.99,10,0,10,0.00
2013-9-11,92,79,68,77,72,68,100,83,54,30.03,29.89,7,0,7,0.00
2013-9-12,87,77,70,75,71,69,100,85,64,29.93,29.64,10,1,12,0.00
2013-9-13,78,69,60,71,67,57,100,94,69,29.72,29.52,7,0,7,0.00
2013-9-14,69,61,53,59,56,52,98,84,68,30.02,29.72,7,0,7,0.00
2013-9-15,72,59,50,55,52,50,100,82,52,30.12,30.01,7,0,8,0.00
2013-9-16,67,58,50,59,53,42,98,84,70,30.21,29.98,5,0,5,0.00
2013-9-17,66,52,43,48,43,40,96,73,44,30.39,30.21,7,0,7,0.00
2013-9-18,76,57,44,53,48,43,99,76,37,30.29,30.10,7,0,7,0.00
2013-9-19,81,61,49,60,54,48,98,80,40,30.11,29.99,5,0,5,0.00
2013-9-20,81,63,52,62,56,51,100,82,44,30.05,29.95,3,0,3,0.00
2013-9-21,77,65,56,67,61,56,100,89,61,30.00,29.68,14,1,14,0.00
2013-9-22,72,65,54,68,59,48,100,84,57,29.79,29.56,17,1,18,0.00
2013-9-23,68,54,47,50,45,42,88,74,51,29.97,29.79,8,0,12,0.00
2013-9-24,71,55,45,50,45,41,90,72,44,29.96,29.77,8,0,8,0.00
2013-9-25,67,55,47,53,49,46,97,82,60,29.95,29.84,5,0,5,0.00
2013-9-26,69,58,54,54,52,48,94,80,58,30.09,29.94,7,0,8,0.00
2013-9-27,64,58,51,58,54,50,99,86,71,30.22,30.08,7,0,7,0.00
2013-9-28,74,57,48,59,53,48,100,87,55,30.29,30.21,5,0,6,0.00
2013-9-29,71,55,48,56,50,43,100,87,47,30.23,30.08,7,0,7,0.00
2013-9-30,71,56,50,55,52,49,100,89,55,30.09,29.93,5,0,5,0.00
2013-10-1,80,59,47,59,53,46,100,84,43,29.93,29.80,5,0,5,0.00
2013-10-2,82,65,53,63,58,53,100,82,53,29.91,29.78,15,0,15,0.00
2013-10-3,77,63,52,58,54,47,100,77,41,30.05,29.91,3,0,3,0.00
2013-10-4,64,58,52,62,56,51,100,95,86,30.05,29.99,2,0,2,0.00
2013-10-5,68,62,58,62,59,57,100,92,74,30.08,30.01,3,0,3,0.00
2013-10-6,61,58,56,60,58,56,100,100,95,30.18,30.06,5,0,5,0.00
2013-10-7,78,66,58,71,64,56,100,94,77,30.09,29.77,15,2,17,0.00
2013-10-8,69,57,47,56,48,43,92,75,49,30.33,29.86,12,0,12,0.00
2013-10-9,62,51,44,49,46,43,100,84,53,30.43,30.32,12,0,12,0.00
2013-10-10,62,52,44,55,50,44,100,93,75,30.32,30.14,7,0,7,0.00
2013-10-11,72,57,51,59,53,50,100,87,60,30.14,30.05,5,0,6,0.00
2013-10-12,60,55,49,58,53,48,100,96,86,30.35,30.10,5,0,12,0.00
2013-10-13,60,52,43,52,48,43,100,89,69,30.40,30.32,5,0,8,0.00
2013-10-14,65,49,37,50,44,37,100,85,40,30.37,30.21,7,0,7,0.00
2013-10-15,67,56,48,56,52,48,100,87,62,30.23,30.14,5,0,5,0.00
2013-10-16,62,55,48,58,54,47,100,96,83,30.14,29.87,3,0,3,0.00
2013-10-17,74,61,52,62,58,52,100,93,66,29.88,29.69,7,0,8,0.00
2013-10-18,69,60,49,62,53,44,100,79,48,29.88,29.57,10,1,15,0.00
2013-10-19,67,54,44,50,46,42,96,77,45,29.94,29.71,10,0,10,0.00
2013-10-20,66,54,43,53,43,34,100,72,36,29.99,29.65,12,1,15,0.00
2013-10-21,70,51,39,47,42,38,96,74,39,30.08,29.96,7,0,7,0.00
2013-10-22,67,53,43,53,47,40,100,82,54,29.96,29.67,8,0,10,0.00
2013-10-23,52,46,38,41,38,35,97,77,54,29.77,29.56,5,0,6,0.00
2013-10-24,56,45,39,39,33,25,86,64,37,29.85,29.60,12,1,15,0.00
2013-10-25,51,41,34,36,32,28,94,71,45,30.12,29.85,14,0,14,0.00
2013-10-26,58,43,32,39,32,28,96,70,34,30.12,29.84,20,1,20,0.00
2013-10-27,56,48,40,43,37,30,95,68,44,30.03,29.78,12,1,12,0.00
2013-10-28,58,45,33,38,34,28,95,68,43,30.31,30.02,17,1,18,0.00
2013-10-29,53,39,31,34,29,23,94,70,38,30.41,30.30,3,0,6,0.00
2013-10-30,53,42,33,45,38,31,99,89,66,30.33,30.15,5,0,5,0.00
2013-10-31,62,49,35,61,48,34,100,96,86,30.20,29.75,12,1,12,0.00
2013-11-1,70,64,58,64,59,55,100,87,70,29.75,29.43,22,3,22,0.00
2013-11-2,69,56,49,55,48,41,100,78,39,29.69,29.55,7,0,7,0.00
2013-11-3,52,43,34,49,34,19,92,71,47,30.37,29.68,8,0,8,0.00
2013-11-4,47,34,29,26,23,16,89,64,34,30.67,30.38,8,0,8,0.00
2013-11-5,54,38,27,36,30,21,93,75,44,30.68,30.46,5,0,6,0.00
2013-11-6,64,50,39,51,43,35,93,78,50,30.48,30.00,15,2,15,0.00
2013-11-7,66,54,41,60,52,37,100,92,73,30.01,29.64,17,1,20,0.00
2013-11-8,50,40,34,37,30,23,91,69,48,30.06,29.77,14,2,20,0.00
2013-11-9,45,38,31,34,28,23,88,68,44,30.18,29.99,12,1,12,0.00
2013-11-10,57,46,40,46,38,32,100,77,53,29.99,29.69,15,1,15,0.00
2013-11-11,53,45,40,35,30,26,68,58,37,30.07,29.81,15,2,15,0.00
2013-11-12,48,37,29,42,29,19,96,73,57,30.15,29.85,12,1,13,0.00
2013-11-13,40,30,26,21,17,13,78,62,39,30.25,30.12,15,1,15,0.00
2013-11-14,52,38,29,29,24,19,69,57,36,30.12,29.99,12,2,12,0.00
2013-11-15,61,45,32,35,26,20,77,52,23,30.16,30.06,10,1,13,0.00
2013-11-16,62,45,36,36,32,25,91,63,25,30.28,30.14,7,0,8,0.00
2013-11-17,59,48,34,57,45,32,100,89,67,30.28,29.80,5,0,10,0.00
2013-11-18,66,58,47,63,50,35,100,78,47,29.79,29.49,15,3,23,0.00
2013-11-19,47,40,32,36,25,19,66,54,40,30.23,29.61,22,3,22,0.00
2013-11-20,44,33,26,21,18,14,82,57,32,30.58,30.23,14,1,14,0.00
2013-11-21,49,34,24,32,22,16,89,68,37,30.59,30.33,10,0,10,0.00
2013-11-22,49,45,39,48,43,32,100,94,75,30.33,29.78,5,0,5,0.00
2013-11-23,48,41,31,48,29,18,100,65,38,29.87,29.74,15,3,17,0.00
2013-11-24,31,25,22,22,4,-6,76,47,29,30.15,29.75,24,5,25,0.00
2013-11-25,36,26,18,20,5,-5,61,45,23,30.33,30.15,15,2,17,0.00
2013-11-26,42,38,32,42,26,19,100,65,49,30.28,29.98,14,1,14,0.00
2013-11-27,62,52,39,63,52,35,100,98,87,29.99,29.17,26,3,26,0.00
2013-11-28,39,32,27,36,20,11,91,62,39,30.39,29.41,20,3,25,0.00
2013-11-29,35,29,22,20,14,5,78,58,38,30.70,30.38,8,1,8,0.00
2013-11-30,34,26,18,27,16,8,81,71,55,30.75,30.39,7,0,7,0.00
2013-12-1,41,36,32,40,35,26,100,93,78,30.39,29.96,5,0,5,0.00
2013-12-2,42,39,38,41,39,38,100,99,95,29.97,29.87,5,0,5,0.00
2013-12-3,48,40,35,39,37,34,100,91,61,29.91,29.80,8,1,8,0.00
2013-12-4,45,36,31,35,32,29,99,84,56,30.15,29.90,8,0,8,0.00
2013-12-5,55,44,32,55,42,31,100,92,78,30.17,29.87,8,0,8,0.00
2013-12-6,57,51,37,57,48,36,100,92,75,30.10,29.81,8,1,10,0.00
2013-12-7,40,35,29,36,31,25,98,87,64,30.41,30.02,10,1,12,0.00
2013-12-8,33,30,26,25,20,15,86,66,53,30.55,30.40,5,0,5,0.00
2013-12-9,40,35,29,39,33,17,100,92,53,30.45,29.84,7,0,8,0.00
2013-12-10,37,34,27,36,32,17,99,93,78,29.95,29.74,10,1,10,0.00
2013-12-11,33,28,24,24,19,15,86,79,66,30.17,29.95,17,2,17,0.00
2013-12-12,27,23,16,17,8,1,88,66,41,30.23,30.03,12,1,12,0.00
2013-12-13,31,24,16,20,12,3,80,67,52,30.34,29.95,14,2,14,0.00
2013-12-14,31,20,14,31,6,-5,100,67,45,30.56,30.08,8,1,15,0.00
2013-12-15,36,31,26,36,28,19,100,94,85,30.09,29.37,22,2,22,0.00
2013-12-16,30,26,18,25,15,7,88,70,47,30.16,29.70,14,2,14,0.00
2013-12-17,23,18,10,16,8,-2,92,80,59,30.24,29.90,8,0,8,0.00
2013-12-18,35,27,20,24,19,12,90,80,62,30.03,29.82,15,1,15,0.00
2013-12-19,43,34,25,31,26,17,86,75,55,30.07,29.91,17,2,17,0.00
2013-12-20,51,42,34,38,34,30,89,75,58,30.08,29.86,12,1,12,0.00
2013-12-21,57,48,41,48,43,36,100,85,72,29.92,29.81,8,1,8,0.00
2013-12-22,49,42,37,48,42,37,100,99,95,29.99,29.75,8,1,10,0.00
2013-12-23,38,36,35,38,37,35,100,100,99,30.06,29.90,7,0,7,0.00
2013-12-24,38,34,28,38,27,20,100,75,57,30.16,30.00,8,1,12,0.00
2013-12-25,28,22,17,22,6,1,78,60,46,30.50,30.15,14,1,15,0.00
2013-12-26,36,29,19,33,23,7,95,84,70,30.46,30.04,7,0,7,0.00
2013-12-27,36,29,25,26,22,17,91,80,62,30.24,30.15,10,1,10,0.00
2013-12-28,45,34,26,32,28,18,90,79,56,30.18,29.95,14,1,17,0.00
2013-12-29,42,37,32,41,35,29,100,92,74,29.99,29.36,17,1,17,0.00
2013-12-30,40,34,23,39,27,9,100,79,49,30.12,29.47,12,2,22,0.00
2013-12-31,28,22,17,15,7,-3,79,61,47,30.15,29.97,7,1,8,0.00
2014-1-1,30,24,19,14,10,5,78,63,47,30.34,30.14,12,1,13,0.00
2014-1-2,26,17,6,16,9,-3,89,85,71,30.32,29.80,17,3,17,0.00